Time,TemperatureF,DewpointF,PressureIn,WindDirection,WindDirectionDegrees,WindSpeedMPH,WindSpeedGustMPH,Humidity,HourlyPrecipIn,Conditions,Clouds,dailyrainin,SolarRadiationWatts/m^2,SoftwareType,DateUTC
2013-05-26 00:02:00,49.0,30.0,-100.00,SE,139,5.0,13.0,48,0.00,,,0.00,0.000000,,2013-05-26 05:02:00,
2013-05-26 00:22:00,48.0,27.0,-100.00,SE,125,8.0,12.0,43,0.00,,,0.00,0.000000,,2013-05-26 05:22:00,
2013-05-26 00:32:00,48.0,27.0,-100.00,SE,125,8.0,12.0,43,0.00,,,0.00,0.000000,,2013-05-26 05:32:00,
2013-05-26 00:42:00,48.0,27.0,-100.00,SE,125,8.0,12.0,43,0.00,,,0.00,0.000000,,2013-05-26 05:42:00,
2013-05-26 00:52:00,48.0,27.0,-100.00,SE,125,8.0,12.0,43,0.00,,,0.00,0.000000,,2013-05-26 05:52:00,
2013-05-26 01:01:00,48.0,27.0,-100.00,SE,125,8.0,12.0,43,0.00,,,0.00,0.000000,,2013-05-26 06:01:00,
2013-05-26 01:22:00,46.0,26.0,-100.00,ESE,114,6.0,12.0,45,0.00,,,0.00,0.000000,,2013-05-26 06:22:00,
2013-05-26 01:32:00,46.0,26.0,-100.00,ESE,114,6.0,12.0,45,0.00,,,0.00,0.000000,,2013-05-26 06:32:00,
2013-05-26 01:42:00,46.0,26.0,-100.00,ESE,114,6.0,12.0,45,0.00,,,0.00,0.000000,,2013-05-26 06:42:00,
2013-05-26 01:52:00,46.0,26.0,-100.00,ESE,114,6.0,12.0,45,0.00,,,0.00,0.000000,,2013-05-26 06:52:00,
2013-05-26 02:01:00,46.0,26.0,-100.00,ESE,114,6.0,12.0,45,0.00,,,0.00,0.000000,,2013-05-26 07:01:00,
2013-05-26 02:22:00,44.0,26.0,-100.00,ESE,108,5.0,10.0,48,0.00,,,0.00,0.000000,,2013-05-26 07:22:00,
2013-05-26 02:32:00,44.0,26.0,-100.00,ESE,108,5.0,10.0,48,0.00,,,0.00,0.000000,,2013-05-26 07:32:00,
2013-05-26 02:42:00,44.0,26.0,-100.00,ESE,108,5.0,10.0,48,0.00,,,0.00,0.000000,,2013-05-26 07:42:00,
2013-05-26 02:52:00,44.0,26.0,-100.00,ESE,108,5.0,10.0,48,0.00,,,0.00,0.000000,,2013-05-26 07:52:00,
2013-05-26 03:01:00,44.0,26.0,-100.00,ESE,108,5.0,10.0,48,0.00,,,0.00,0.000000,,2013-05-26 08:01:00,
2013-05-26 03:22:00,44.0,28.0,-100.00,ESE,104,5.0,9.0,52,0.00,,,0.00,0.000000,,2013-05-26 08:22:00,
2013-05-26 03:32:00,44.0,28.0,-100.00,ESE,104,5.0,9.0,52,0.00,,,0.00,0.000000,,2013-05-26 08:32:00,
2013-05-26 03:42:00,44.0,28.0,-100.00,ESE,104,5.0,9.0,52,0.00,,,0.00,0.000000,,2013-05-26 08:42:00,
2013-05-26 03:53:00,44.0,28.0,-100.00,ESE,104,5.0,9.0,52,0.00,,,0.00,0.000000,,2013-05-26 08:53:00,
2013-05-26 04:01:00,44.0,28.0,-100.00,ESE,104,5.0,9.0,52,0.00,,,0.00,0.000000,,2013-05-26 09:01:00,
2013-05-26 04:22:00,43.0,27.0,-100.00,East,90,5.0,8.0,52,0.00,,,0.00,0.000000,,2013-05-26 09:22:00,
2013-05-26 04:34:00,43.0,27.0,-100.00,East,90,5.0,8.0,52,0.00,,,0.00,0.000000,,2013-05-26 09:34:00,
2013-05-26 04:43:00,43.0,27.0,-100.00,East,90,5.0,8.0,52,0.00,,,0.00,0.000000,,2013-05-26 09:43:00,
2013-05-26 04:53:00,43.0,27.0,-100.00,East,90,5.0,8.0,52,0.00,,,0.00,0.000000,,2013-05-26 09:53:00,
2013-05-26 05:02:00,43.0,27.0,-100.00,East,90,5.0,8.0,52,0.00,,,0.00,0.000000,,2013-05-26 10:02:00,
2013-05-26 05:23:00,40.0,28.0,-100.00,ENE,74,5.0,7.0,63,0.00,,,0.00,0.000000,,2013-05-26 10:23:00,
2013-05-26 05:33:00,40.0,28.0,-100.00,ENE,74,5.0,7.0,63,0.00,,,0.00,0.000000,,2013-05-26 10:33:00,
2013-05-26 05:42:00,40.0,28.0,-100.00,ENE,74,5.0,7.0,63,0.00,,,0.00,0.000000,,2013-05-26 10:42:00,
2013-05-26 05:52:00,40.0,28.0,-100.00,ENE,74,5.0,7.0,63,0.00,,,0.00,0.000000,,2013-05-26 10:52:00,
2013-05-26 06:03:00,40.0,28.0,-100.00,ENE,74,5.0,7.0,63,0.00,,,0.00,0.000000,,2013-05-26 11:03:00,
2013-05-26 06:22:00,41.0,29.0,-100.00,ESE,104,3.0,7.0,62,0.00,,,0.00,20.000000,,2013-05-26 11:22:00,
2013-05-26 06:32:00,41.0,29.0,-100.00,ESE,104,3.0,7.0,62,0.00,,,0.00,20.000000,,2013-05-26 11:32:00,
2013-05-26 06:42:00,41.0,29.0,-100.00,ESE,104,3.0,7.0,62,0.00,,,0.00,20.000000,,2013-05-26 11:42:00,
2013-05-26 06:52:00,41.0,29.0,-100.00,ESE,104,3.0,7.0,62,0.00,,,0.00,20.000000,,2013-05-26 11:52:00,
2013-05-26 07:02:00,41.0,29.0,-100.00,ESE,104,3.0,7.0,62,0.00,,,0.00,20.000000,,2013-05-26 12:02:00,
2013-05-26 07:22:00,48.0,29.0,-100.00,ESE,109,4.0,7.0,47,0.00,,,0.00,187.000000,,2013-05-26 12:22:00,
2013-05-26 07:32:00,48.0,29.0,-100.00,ESE,109,4.0,7.0,47,0.00,,,0.00,187.000000,,2013-05-26 12:32:00,
2013-05-26 07:42:00,48.0,29.0,-100.00,ESE,109,4.0,7.0,47,0.00,,,0.00,187.000000,,2013-05-26 12:42:00,
2013-05-26 07:52:00,48.0,29.0,-100.00,ESE,109,4.0,7.0,47,0.00,,,0.00,187.000000,,2013-05-26 12:52:00,
2013-05-26 08:02:00,48.0,29.0,-100.00,ESE,109,4.0,7.0,47,0.00,,,0.00,187.000000,,2013-05-26 13:02:00,
2013-05-26 08:22:00,53.0,31.0,-100.00,SE,141,5.0,10.0,42,0.00,,,0.00,360.000000,,2013-05-26 13:22:00,
2013-05-26 08:32:00,53.0,31.0,-100.00,SE,141,5.0,10.0,42,0.00,,,0.00,360.000000,,2013-05-26 13:32:00,
2013-05-26 08:42:00,53.0,31.0,-100.00,SE,141,5.0,10.0,42,0.00,,,0.00,360.000000,,2013-05-26 13:42:00,
2013-05-26 08:52:00,53.0,31.0,-100.00,SE,141,5.0,10.0,42,0.00,,,0.00,360.000000,,2013-05-26 13:52:00,
2013-05-26 09:02:00,53.0,31.0,-100.00,SE,141,5.0,10.0,42,0.00,,,0.00,360.000000,,2013-05-26 14:02:00,
2013-05-26 09:22:00,59.0,31.0,-100.00,ESE,121,5.0,10.0,35,0.00,,,0.00,541.000000,,2013-05-26 14:22:00,
2013-05-26 09:32:00,59.0,31.0,-100.00,ESE,121,5.0,10.0,35,0.00,,,0.00,541.000000,,2013-05-26 14:32:00,
2013-05-26 09:42:00,59.0,31.0,-100.00,ESE,121,5.0,10.0,35,0.00,,,0.00,541.000000,,2013-05-26 14:42:00,
2013-05-26 09:52:00,59.0,31.0,-100.00,ESE,121,5.0,10.0,35,0.00,,,0.00,541.000000,,2013-05-26 14:52:00,
2013-05-26 10:01:00,59.0,31.0,-100.00,ESE,121,5.0,10.0,35,0.00,,,0.00,541.000000,,2013-05-26 15:01:00,
2013-05-26 10:22:00,63.0,33.0,-100.00,ESE,122,5.0,10.0,33,0.00,,,0.00,739.000000,,2013-05-26 15:22:00,
2013-05-26 10:33:00,63.0,33.0,-100.00,ESE,122,5.0,10.0,33,0.00,,,0.00,739.000000,,2013-05-26 15:33:00,
2013-05-26 10:43:00,63.0,33.0,-100.00,ESE,122,5.0,10.0,33,0.00,,,0.00,739.000000,,2013-05-26 15:43:00,
2013-05-26 10:53:00,63.0,33.0,-100.00,ESE,122,5.0,10.0,33,0.00,,,0.00,739.000000,,2013-05-26 15:53:00,
2013-05-26 11:03:00,63.0,33.0,-100.00,ESE,122,5.0,10.0,33,0.00,,,0.00,739.000000,,2013-05-26 16:03:00,
2013-05-26 11:23:00,64.0,36.0,-100.00,SSE,162,7.0,12.0,35,0.00,,,0.00,626.000000,,2013-05-26 16:23:00,
2013-05-26 11:33:00,64.0,36.0,-100.00,SSE,162,7.0,12.0,35,0.00,,,0.00,626.000000,,2013-05-26 16:33:00,
2013-05-26 11:42:00,64.0,36.0,-100.00,SSE,162,7.0,12.0,35,0.00,,,0.00,626.000000,,2013-05-26 16:42:00,
2013-05-26 11:53:00,64.0,36.0,-100.00,SSE,162,7.0,12.0,35,0.00,,,0.00,626.000000,,2013-05-26 16:53:00,
2013-05-26 12:02:00,64.0,36.0,-100.00,SSE,162,7.0,12.0,35,0.00,,,0.00,626.000000,,2013-05-26 17:02:00,
2013-05-26 12:23:00,67.0,35.0,-100.00,SE,125,5.0,13.0,31,0.00,,,0.00,697.000000,,2013-05-26 17:23:00,
2013-05-26 12:32:00,67.0,35.0,-100.00,SE,125,5.0,13.0,31,0.00,,,0.00,697.000000,,2013-05-26 17:32:00,
2013-05-26 12:42:00,67.0,35.0,-100.00,SE,125,5.0,13.0,31,0.00,,,0.00,697.000000,,2013-05-26 17:42:00,
2013-05-26 12:52:00,67.0,35.0,-100.00,SE,125,5.0,13.0,31,0.00,,,0.00,697.000000,,2013-05-26 17:52:00,
2013-05-26 13:01:00,67.0,35.0,-100.00,SE,125,5.0,13.0,31,0.00,,,0.00,697.000000,,2013-05-26 18:01:00,
2013-05-26 13:22:00,69.0,37.0,-100.00,SE,126,6.0,15.0,31,0.00,,,0.00,883.000000,,2013-05-26 18:22:00,
2013-05-26 13:32:00,69.0,37.0,-100.00,SE,126,6.0,15.0,31,0.00,,,0.00,883.000000,,2013-05-26 18:32:00,
2013-05-26 13:42:00,69.0,37.0,-100.00,SE,126,6.0,15.0,31,0.00,,,0.00,883.000000,,2013-05-26 18:42:00,
2013-05-26 13:52:00,69.0,37.0,-100.00,SE,126,6.0,15.0,31,0.00,,,0.00,883.000000,,2013-05-26 18:52:00,
2013-05-26 14:01:00,69.0,37.0,-100.00,SE,126,6.0,15.0,31,0.00,,,0.00,883.000000,,2013-05-26 19:01:00,
2013-05-26 14:22:00,69.0,35.0,-100.00,SE,137,7.0,16.0,28,0.00,,,0.00,801.000000,,2013-05-26 19:22:00,
2013-05-26 14:32:00,69.0,35.0,-100.00,SE,137,7.0,16.0,28,0.00,,,0.00,801.000000,,2013-05-26 19:32:00,
2013-05-26 14:42:00,69.0,35.0,-100.00,SE,137,7.0,16.0,28,0.00,,,0.00,801.000000,,2013-05-26 19:42:00,
2013-05-26 14:52:00,69.0,35.0,-100.00,SE,137,7.0,16.0,28,0.00,,,0.00,801.000000,,2013-05-26 19:52:00,
2013-05-26 15:02:00,69.0,35.0,-100.00,SE,137,7.0,16.0,28,0.00,,,0.00,801.000000,,2013-05-26 20:02:00,
2013-05-26 15:22:00,71.0,34.0,-100.00,ESE,116,8.0,16.0,26,0.00,,,0.00,855.000000,,2013-05-26 20:22:00,
2013-05-26 15:32:00,71.0,34.0,-100.00,ESE,116,8.0,16.0,26,0.00,,,0.00,855.000000,,2013-05-26 20:32:00,
2013-05-26 15:42:00,71.0,34.0,-100.00,ESE,116,8.0,16.0,26,0.00,,,0.00,855.000000,,2013-05-26 20:42:00,
2013-05-26 15:52:00,71.0,34.0,-100.00,ESE,116,8.0,16.0,26,0.00,,,0.00,855.000000,,2013-05-26 20:52:00,
2013-05-26 16:02:00,71.0,34.0,-100.00,ESE,116,8.0,16.0,26,0.00,,,0.00,855.000000,,2013-05-26 21:02:00,
2013-05-26 16:22:00,71.0,33.0,-100.00,SSE,149,9.0,18.0,25,0.00,,,0.00,893.000000,,2013-05-26 21:22:00,
2013-05-26 16:33:00,71.0,33.0,-100.00,SSE,149,9.0,18.0,25,0.00,,,0.00,893.000000,,2013-05-26 21:33:00,
2013-05-26 16:43:00,71.0,33.0,-100.00,SSE,149,9.0,18.0,25,0.00,,,0.00,893.000000,,2013-05-26 21:43:00,
2013-05-26 16:53:00,71.0,33.0,-100.00,SSE,149,9.0,18.0,25,0.00,,,0.00,893.000000,,2013-05-26 21:53:00,
2013-05-26 17:02:00,71.0,33.0,-100.00,SSE,149,9.0,18.0,25,0.00,,,0.00,893.000000,,2013-05-26 22:02:00,
2013-05-26 17:23:00,69.0,31.0,-100.00,SSE,148,8.0,19.0,24,0.00,,,0.00,687.000000,,2013-05-26 22:23:00,
2013-05-26 17:33:00,69.0,31.0,-100.00,SSE,148,8.0,19.0,24,0.00,,,0.00,687.000000,,2013-05-26 22:33:00,
2013-05-26 17:42:00,69.0,31.0,-100.00,SSE,148,8.0,19.0,24,0.00,,,0.00,687.000000,,2013-05-26 22:42:00,
2013-05-26 17:53:00,69.0,31.0,-100.00,SSE,148,8.0,19.0,24,0.00,,,0.00,687.000000,,2013-05-26 22:53:00,
2013-05-26 18:02:00,69.0,31.0,-100.00,SSE,148,8.0,19.0,24,0.00,,,0.00,687.000000,,2013-05-26 23:02:00,
2013-05-26 18:22:00,68.0,32.0,-100.00,SE,146,9.0,16.0,26,0.00,,,0.00,520.000000,,2013-05-26 23:22:00,
2013-05-26 18:32:00,68.0,32.0,-100.00,SE,146,9.0,16.0,26,0.00,,,0.00,520.000000,,2013-05-26 23:32:00,
2013-05-26 18:43:00,68.0,32.0,-100.00,SE,146,9.0,16.0,26,0.00,,,0.00,520.000000,,2013-05-26 23:43:00,
2013-05-26 18:52:00,68.0,32.0,-100.00,SE,146,9.0,16.0,26,0.00,,,0.00,520.000000,,2013-05-26 23:52:00,
2013-05-26 19:02:00,68.0,32.0,-100.00,SE,146,9.0,16.0,26,0.00,,,0.00,520.000000,,2013-05-27 00:02:00,
2013-05-26 19:22:00,66.0,31.0,-100.00,SE,132,7.0,13.0,27,0.00,,,0.00,302.000000,,2013-05-27 00:22:00,
2013-05-26 19:32:00,66.0,31.0,-100.00,SE,132,7.0,13.0,27,0.00,,,0.00,302.000000,,2013-05-27 00:32:00,
2013-05-26 19:42:00,66.0,31.0,-100.00,SE,132,7.0,13.0,27,0.00,,,0.00,302.000000,,2013-05-27 00:42:00,
2013-05-26 19:52:00,66.0,31.0,-100.00,SE,132,7.0,13.0,27,0.00,,,0.00,302.000000,,2013-05-27 00:52:00,
2013-05-26 20:01:00,66.0,31.0,-100.00,SE,132,7.0,13.0,27,0.00,,,0.00,302.000000,,2013-05-27 01:01:00,
2013-05-26 20:22:00,62.0,31.0,-100.00,SE,135,6.0,11.0,31,0.00,,,0.00,109.000000,,2013-05-27 01:22:00,
2013-05-26 20:32:00,62.0,31.0,-100.00,SE,135,6.0,11.0,31,0.00,,,0.00,109.000000,,2013-05-27 01:32:00,
2013-05-26 20:42:00,62.0,31.0,-100.00,SE,135,6.0,11.0,31,0.00,,,0.00,109.000000,,2013-05-27 01:42:00,
2013-05-26 20:52:00,62.0,31.0,-100.00,SE,135,6.0,11.0,31,0.00,,,0.00,109.000000,,2013-05-27 01:52:00,
2013-05-26 21:01:00,62.0,31.0,-100.00,SE,135,6.0,11.0,31,0.00,,,0.00,109.000000,,2013-05-27 02:01:00,
2013-05-26 21:22:00,58.0,32.0,-100.00,SE,129,5.0,10.0,37,0.00,,,0.00,27.000000,,2013-05-27 02:22:00,
2013-05-26 21:32:00,58.0,32.0,-100.00,SE,129,5.0,10.0,37,0.00,,,0.00,27.000000,,2013-05-27 02:32:00,
2013-05-26 21:43:00,58.0,32.0,-100.00,SE,129,5.0,10.0,37,0.00,,,0.00,27.000000,,2013-05-27 02:43:00,
2013-05-26 21:52:00,58.0,32.0,-100.00,SE,129,5.0,10.0,37,0.00,,,0.00,27.000000,,2013-05-27 02:52:00,
2013-05-26 22:02:00,58.0,32.0,-100.00,SE,129,5.0,10.0,37,0.00,,,0.00,27.000000,,2013-05-27 03:02:00,
2013-05-26 22:21:00,56.0,34.0,-100.00,ESE,123,6.0,10.0,43,0.00,,,0.00,0.000000,,2013-05-27 03:21:00,
2013-05-26 22:33:00,56.0,34.0,-100.00,ESE,123,6.0,10.0,43,0.00,,,0.00,0.000000,,2013-05-27 03:33:00,
2013-05-26 22:43:00,56.0,34.0,-100.00,ESE,123,6.0,10.0,43,0.00,,,0.00,0.000000,,2013-05-27 03:43:00,
2013-05-26 22:53:00,56.0,34.0,-100.00,ESE,123,6.0,10.0,43,0.00,,,0.00,0.000000,,2013-05-27 03:53:00,
2013-05-26 23:02:00,56.0,34.0,-100.00,ESE,123,6.0,10.0,43,0.00,,,0.00,0.000000,,2013-05-27 04:02:00,
2013-05-26 23:23:00,53.0,28.0,-100.00,SE,132,6.0,12.0,38,0.00,,,0.00,0.000000,,2013-05-27 04:23:00,
2013-05-26 23:33:00,53.0,28.0,-100.00,SE,132,6.0,12.0,38,0.00,,,0.00,0.000000,,2013-05-27 04:33:00,
2013-05-26 23:43:00,53.0,28.0,-100.00,SE,132,6.0,12.0,38,0.00,,,0.00,0.000000,,2013-05-27 04:43:00,
2013-05-26 23:52:00,53.0,28.0,-100.00,SE,132,6.0,12.0,38,0.00,,,0.00,0.000000,,2013-05-27 04:52:00,